createdAt,value
2023-01-08T00:00:09.680Z,53.09
2023-01-08T00:02:39.393Z,53.03
2023-01-08T00:05:06.787Z,52.84
2023-01-08T00:07:33.342Z,53.07
2023-01-08T00:09:59.886Z,53.13
2023-01-08T00:12:26.429Z,53.23
2023-01-08T00:14:53.192Z,53.08
2023-01-08T00:17:19.792Z,53.04
2023-01-08T00:19:46.335Z,53.06
2023-01-08T00:22:12.873Z,53.35
2023-01-08T00:24:39.426Z,52.95
2023-01-08T00:27:06.005Z,52.89
2023-01-08T00:29:32.606Z,52.84
2023-01-08T00:31:59.229Z,52.82
2023-01-08T00:34:25.860Z,52.75
2023-01-08T00:36:52.397Z,52.91
2023-01-08T00:39:18.912Z,52.94
2023-01-08T00:41:45.827Z,53.30
2023-01-08T00:44:12.400Z,52.80
2023-01-08T00:46:38.908Z,52.52
2023-01-08T00:49:05.471Z,52.14
2023-01-08T00:51:32.087Z,52.48
2023-01-08T00:53:59.211Z,51.96
2023-01-08T00:56:25.737Z,52.01
2023-01-08T00:58:52.282Z,51.70
2023-01-08T01:01:18.967Z,51.28
2023-01-08T01:03:45.679Z,50.99
2023-01-08T01:06:14.075Z,50.74
2023-01-08T01:08:41.530Z,50.61
2023-01-08T01:11:22.764Z,50.66
2023-01-08T01:13:49.782Z,50.77
2023-01-08T01:16:16.998Z,50.35
2023-01-08T01:18:43.825Z,50.33
2023-01-08T01:21:24.776Z,49.88
2023-01-08T01:23:55.135Z,49.61
2023-01-08T01:26:22.544Z,49.66
2023-01-08T01:28:51.542Z,49.66
2023-01-08T01:31:18.863Z,49.81
2023-01-08T01:33:46.647Z,49.69
2023-01-08T01:36:15.015Z,49.63
2023-01-08T01:38:49.359Z,49.61
2023-01-08T01:41:27.178Z,49.51
2023-01-08T01:43:55.607Z,49.79
2023-01-08T01:46:38.739Z,50.26
2023-01-08T01:49:15.480Z,49.94
2023-01-08T01:51:49.087Z,50.29
2023-01-08T01:54:17.769Z,50.02
2023-01-08T01:56:45.510Z,49.60
2023-01-08T01:59:12.436Z,50.04
2023-01-08T02:01:41.557Z,50.17
2023-01-08T02:04:11.567Z,50.24
2023-01-08T02:06:48.156Z,49.92
2023-01-08T02:09:23.719Z,50.24
2023-01-08T02:12:16.472Z,50.48
2023-01-08T02:15:00.790Z,50.09
2023-01-08T02:17:37.367Z,50.42
2023-01-08T02:20:18.646Z,50.72
2023-01-08T02:22:54.685Z,51.01
2023-01-08T02:25:30.137Z,50.42
2023-01-08T02:27:58.824Z,50.19
2023-01-08T02:30:25.688Z,50.97
2023-01-08T02:32:52.279Z,51.18
2023-01-08T02:35:18.878Z,50.90
2023-01-08T02:37:45.552Z,51.43
2023-01-08T02:40:33.865Z,51.40
2023-01-08T02:43:12.308Z,51.53
2023-01-08T02:45:48.691Z,51.96
2023-01-08T02:48:30.947Z,52.20
2023-01-08T02:51:11.074Z,52.20
2023-01-08T02:53:47.245Z,52.15
2023-01-08T02:56:18.114Z,52.54
2023-01-08T02:58:47.865Z,52.71
2023-01-08T03:01:17.202Z,52.36
2023-01-08T03:03:49.092Z,52.30
2023-01-08T03:06:18.842Z,52.52
2023-01-08T03:08:48.820Z,52.49
2023-01-08T03:11:18.723Z,52.53
2023-01-08T03:14:00.444Z,52.02
2023-01-08T03:16:33.905Z,52.05
2023-01-08T03:19:15.526Z,52.55
2023-01-08T03:21:44.892Z,52.36
2023-01-08T03:24:15.619Z,53.01
2023-01-08T03:26:45.391Z,52.44
2023-01-08T03:29:15.768Z,52.18
2023-01-08T03:31:44.452Z,51.83
2023-01-08T03:34:13.662Z,51.76
2023-01-08T03:36:45.047Z,51.95
2023-01-08T03:39:33.088Z,51.62
2023-01-08T03:42:07.440Z,51.78
2023-01-08T03:44:33.959Z,51.17
2023-01-08T03:47:01.480Z,51.39
2023-01-08T03:49:29.662Z,51.03
2023-01-08T03:51:56.772Z,51.21
2023-01-08T03:54:29.249Z,51.27
2023-01-08T03:56:55.805Z,51.25
2023-01-08T03:59:22.455Z,51.47
2023-01-08T04:01:50.236Z,51.30
2023-01-08T04:04:17.642Z,51.44
2023-01-08T04:06:44.206Z,51.20
2023-01-08T04:09:10.823Z,51.43
2023-01-08T04:11:37.540Z,51.64
2023-01-08T04:14:04.148Z,51.23
2023-01-08T04:16:31.607Z,51.00
2023-01-08T04:18:58.172Z,51.83
2023-01-08T04:21:24.767Z,51.58
2023-01-08T04:23:51.307Z,51.34
2023-01-08T04:26:17.821Z,51.05
2023-01-08T04:28:44.414Z,51.00
2023-01-08T04:31:11.012Z,51.10
2023-01-08T04:33:37.991Z,51.53
2023-01-08T04:36:05.363Z,51.63
2023-01-08T04:38:31.956Z,51.02
2023-01-08T04:41:00.519Z,50.68
2023-01-08T04:43:27.637Z,50.19
2023-01-08T04:45:58.753Z,49.98
2023-01-08T04:48:25.541Z,49.89
2023-01-08T04:50:52.104Z,49.65
2023-01-08T04:53:18.677Z,49.87
2023-01-08T04:55:45.269Z,49.85
2023-01-08T04:58:12.245Z,50.44
2023-01-08T05:00:40.057Z,50.58
2023-01-08T05:03:06.873Z,50.20
2023-01-08T05:05:34.720Z,49.57
2023-01-08T05:08:01.300Z,49.57
2023-01-08T05:10:27.842Z,49.81
2023-01-08T05:12:59.240Z,49.23
2023-01-08T05:15:26.080Z,49.28
2023-01-08T05:18:04.808Z,49.01
2023-01-08T05:20:34.465Z,49.00
2023-01-08T05:23:02.005Z,49.39
2023-01-08T05:25:28.538Z,49.10
2023-01-08T05:27:55.099Z,48.24
2023-01-08T05:30:21.644Z,48.12
2023-01-08T05:32:48.206Z,48.35
2023-01-08T05:35:14.772Z,48.20
2023-01-08T05:37:41.370Z,48.10
2023-01-08T05:40:08.451Z,48.07
2023-01-08T05:42:35.405Z,47.84
2023-01-08T05:45:06.354Z,48.25
2023-01-08T05:47:34.790Z,48.56
2023-01-08T05:50:01.411Z,48.25
2023-01-08T05:52:28.258Z,48.16
2023-01-08T05:54:54.807Z,48.27
2023-01-08T05:57:21.398Z,48.79
2023-01-08T05:59:48.025Z,48.33
2023-01-08T06:02:14.585Z,48.40
2023-01-08T06:04:41.227Z,48.31
2023-01-08T06:07:07.851Z,48.52
2023-01-08T06:09:34.379Z,48.24
2023-01-08T06:12:00.947Z,48.42
2023-01-08T06:14:27.555Z,48.29
2023-01-08T06:16:54.172Z,48.53
2023-01-08T06:19:20.807Z,48.65
2023-01-08T06:21:47.385Z,48.35
2023-01-08T06:24:13.979Z,48.19
2023-01-08T06:26:40.521Z,48.36
2023-01-08T06:29:07.124Z,48.51
2023-01-08T06:31:33.746Z,49.13
2023-01-08T06:34:00.276Z,48.41
2023-01-08T06:36:26.814Z,48.16
2023-01-08T06:38:53.488Z,48.70
2023-01-08T06:41:20.025Z,49.21
2023-01-08T06:43:46.541Z,48.66
2023-01-08T06:46:13.202Z,47.98
2023-01-08T06:48:39.770Z,48.42
2023-01-08T06:51:06.720Z,48.79
2023-01-08T06:53:33.399Z,48.77
2023-01-08T06:56:00.109Z,48.68
2023-01-08T06:58:27.775Z,48.96
2023-01-08T07:00:54.680Z,49.06
2023-01-08T07:03:21.294Z,49.32
2023-01-08T07:05:50.616Z,49.37
2023-01-08T07:08:18.105Z,49.08
2023-01-08T07:10:45.166Z,49.39
2023-01-08T07:13:12.730Z,49.19
2023-01-08T07:15:42.971Z,49.66
2023-01-08T07:18:11.736Z,49.40
2023-01-08T07:20:38.651Z,49.48
2023-01-08T07:23:08.050Z,49.58
2023-01-08T07:25:34.651Z,48.99
2023-01-08T07:28:01.974Z,49.54
2023-01-08T07:30:30.515Z,49.35
2023-01-08T07:33:01.665Z,49.68
2023-01-08T07:35:28.968Z,48.98
2023-01-08T07:37:55.792Z,48.90
2023-01-08T07:40:23.005Z,49.21
2023-01-08T07:42:58.000Z,49.25
2023-01-08T07:45:24.767Z,48.57
2023-01-08T07:47:51.309Z,48.48
2023-01-08T07:50:17.962Z,47.78
2023-01-08T07:52:44.518Z,48.09
2023-01-08T07:55:11.106Z,48.00
2023-01-08T07:57:37.664Z,48.02
2023-01-08T08:00:04.700Z,47.17
2023-01-08T08:02:33.720Z,46.65
2023-01-08T08:05:00.393Z,46.89
2023-01-08T08:07:27.220Z,46.89
2023-01-08T08:09:53.817Z,47.21
2023-01-08T08:12:20.402Z,46.83
2023-01-08T08:14:46.976Z,46.74
2023-01-08T08:17:13.493Z,46.52
2023-01-08T08:19:43.670Z,46.73
2023-01-08T08:22:10.268Z,46.33
2023-01-08T08:24:36.808Z,45.60
2023-01-08T08:27:03.498Z,45.57
2023-01-08T08:29:30.064Z,44.74
2023-01-08T08:31:56.648Z,45.15
2023-01-08T08:34:23.553Z,45.28
2023-01-08T08:36:50.106Z,45.08
2023-01-08T08:39:16.874Z,44.79
2023-01-08T08:41:43.415Z,44.15
2023-01-08T08:44:10.003Z,43.49
2023-01-08T08:46:36.712Z,43.73
2023-01-08T08:49:03.381Z,44.47
2023-01-08T08:51:29.934Z,44.33
2023-01-08T08:53:56.507Z,44.47
2023-01-08T08:56:23.110Z,44.80
2023-01-08T08:58:50.690Z,45.29
2023-01-08T09:01:17.398Z,45.00
2023-01-08T09:03:44.043Z,44.41
2023-01-08T09:06:14.502Z,44.65
2023-01-08T09:08:41.334Z,42.46
2023-01-08T09:11:07.886Z,42.33
2023-01-08T09:13:36.108Z,42.42
2023-01-08T09:16:03.128Z,42.07
2023-01-08T09:18:29.775Z,41.85
2023-01-08T09:20:56.287Z,41.72
2023-01-08T09:23:22.824Z,40.91
2023-01-08T09:25:49.346Z,40.06
2023-01-08T09:28:17.244Z,40.13
2023-01-08T09:30:43.779Z,39.64
2023-01-08T09:33:11.245Z,39.81
2023-01-08T09:35:37.771Z,39.96
2023-01-08T09:38:04.331Z,39.37
2023-01-08T09:40:43.217Z,39.04
2023-01-08T09:43:17.399Z,38.72
2023-01-08T09:45:49.016Z,38.22
2023-01-08T09:48:18.092Z,38.22
2023-01-08T09:50:45.000Z,37.51
2023-01-08T09:53:17.448Z,37.46
2023-01-08T09:55:46.372Z,36.93
2023-01-08T09:58:33.113Z,37.14
2023-01-08T10:01:02.895Z,36.64
2023-01-08T10:03:37.969Z,36.14
2023-01-08T10:06:12.887Z,36.29
2023-01-08T10:08:40.310Z,36.28
2023-01-08T10:11:07.932Z,35.85
2023-01-08T10:13:37.934Z,35.96
2023-01-08T10:16:10.951Z,35.56
2023-01-08T10:18:38.382Z,35.20
2023-01-08T10:21:05.490Z,34.99
2023-01-08T10:23:32.080Z,35.41
2023-01-08T10:26:01.072Z,35.29
2023-01-08T10:28:30.182Z,35.40
2023-01-08T10:31:09.166Z,35.44
2023-01-08T10:33:42.479Z,34.57
2023-01-08T10:36:13.720Z,34.40
2023-01-08T10:38:43.047Z,34.04
2023-01-08T10:41:12.437Z,33.62
2023-01-08T10:43:55.085Z,33.15
2023-01-08T10:46:24.576Z,32.87
2023-01-08T10:48:57.502Z,32.99
2023-01-08T10:51:26.089Z,32.84
2023-01-08T10:53:54.455Z,32.56
2023-01-08T10:56:22.883Z,32.77
2023-01-08T10:58:50.548Z,33.59
2023-01-08T11:01:23.518Z,33.78
2023-01-08T11:03:52.899Z,34.55
2023-01-08T11:06:23.058Z,34.65
2023-01-08T11:08:55.584Z,34.73
2023-01-08T11:11:23.626Z,35.49
2023-01-08T11:14:03.661Z,34.72
2023-01-08T11:16:33.411Z,35.18
2023-01-08T11:19:00.127Z,35.18
2023-01-08T11:21:31.599Z,35.32
2023-01-08T11:24:26.991Z,35.31
2023-01-08T11:26:57.956Z,35.00
2023-01-08T11:29:34.871Z,34.44
2023-01-08T11:32:13.598Z,34.12
2023-01-08T11:34:56.203Z,34.53
2023-01-08T11:37:25.660Z,34.70
2023-01-08T11:39:53.298Z,34.44
2023-01-08T11:42:35.759Z,33.54
2023-01-08T11:45:30.265Z,33.24
2023-01-08T11:48:02.972Z,33.56
2023-01-08T11:50:46.145Z,33.64
2023-01-08T11:53:18.749Z,34.12
2023-01-08T11:56:09.278Z,33.99
2023-01-08T11:59:05.501Z,34.18
2023-01-08T12:01:45.003Z,34.17
2023-01-08T12:04:30.005Z,32.95
2023-01-08T12:07:24.798Z,33.22
2023-01-08T12:10:09.695Z,33.69
2023-01-08T12:12:54.974Z,34.27
2023-01-08T12:16:06.693Z,34.76
2023-01-08T12:19:14.889Z,35.24
2023-01-08T12:21:47.303Z,35.23
2023-01-08T12:24:38.636Z,34.56
2023-01-08T12:27:56.384Z,35.23
2023-01-08T12:30:36.501Z,35.65
2023-01-08T12:33:10.812Z,35.55
2023-01-08T12:35:47.609Z,36.02
2023-01-08T12:38:25.148Z,35.91
2023-01-08T12:41:06.919Z,36.32
2023-01-08T12:43:58.832Z,36.56
2023-01-08T12:46:29.473Z,36.66
2023-01-08T12:48:57.695Z,36.02
2023-01-08T12:52:00.619Z,36.04
2023-01-08T12:54:33.641Z,36.40
2023-01-08T12:57:16.498Z,35.72
2023-01-08T13:00:08.758Z,35.69
2023-01-08T13:02:38.234Z,35.82
2023-01-08T13:05:35.406Z,35.81
2023-01-08T13:08:08.176Z,35.95
2023-01-08T13:10:36.974Z,35.78
2023-01-08T13:13:05.761Z,35.39
2023-01-08T13:15:33.382Z,35.54
2023-01-08T13:18:15.326Z,35.41
2023-01-08T13:20:42.427Z,35.95
2023-01-08T13:23:24.803Z,36.06
2023-01-08T13:25:53.621Z,36.49
2023-01-08T13:28:39.024Z,36.33
2023-01-08T13:31:30.303Z,36.65
2023-01-08T13:33:56.966Z,36.75
2023-01-08T13:36:28.587Z,36.99
2023-01-08T13:39:10.140Z,36.96
2023-01-08T13:41:41.272Z,37.11
2023-01-08T13:44:30.969Z,37.58
2023-01-08T13:47:04.389Z,37.96
2023-01-08T13:49:41.813Z,38.61
2023-01-08T13:52:30.135Z,39.23
2023-01-08T13:54:57.211Z,38.99
2023-01-08T13:57:24.383Z,39.35
2023-01-08T13:59:58.958Z,39.54
2023-01-08T14:02:27.557Z,38.82
2023-01-08T14:04:54.589Z,39.05
2023-01-08T14:07:23.616Z,38.83
2023-01-08T14:09:50.679Z,39.00
2023-01-08T14:12:20.403Z,38.30
2023-01-08T14:14:58.857Z,38.36
2023-01-08T14:17:32.186Z,38.13
2023-01-08T14:19:59.585Z,37.99
2023-01-08T14:22:33.884Z,38.59
2023-01-08T14:25:03.589Z,39.42
2023-01-08T14:27:31.718Z,40.05
2023-01-08T14:29:59.046Z,39.98
2023-01-08T14:32:29.321Z,40.26
2023-01-08T14:34:58.554Z,40.70
2023-01-08T14:37:25.419Z,40.29
2023-01-08T14:39:54.668Z,38.88
2023-01-08T14:42:47.160Z,39.17
2023-01-08T14:45:21.272Z,39.79
2023-01-08T14:47:51.574Z,40.30
2023-01-08T14:50:24.958Z,39.57
2023-01-08T14:52:58.043Z,39.58
2023-01-08T14:55:26.867Z,38.83
2023-01-08T14:57:56.038Z,39.24
2023-01-08T15:00:26.614Z,39.20
2023-01-08T15:02:53.566Z,38.78
2023-01-08T15:05:28.287Z,40.38
2023-01-08T15:08:21.073Z,39.75
2023-01-08T15:10:58.143Z,40.23
2023-01-08T15:13:29.989Z,40.12
2023-01-08T15:16:01.008Z,39.93
2023-01-08T15:18:27.598Z,39.60
2023-01-08T15:20:55.251Z,40.93
2023-01-08T15:23:37.678Z,41.35
2023-01-08T15:26:04.525Z,40.89
2023-01-08T15:28:31.148Z,40.33
2023-01-08T15:30:57.973Z,40.48
2023-01-08T15:33:26.237Z,40.19
2023-01-08T15:35:53.144Z,41.53
2023-01-08T15:38:24.034Z,41.96
2023-01-08T15:40:53.128Z,42.00
2023-01-08T15:43:20.088Z,41.35
2023-01-08T15:45:49.505Z,40.89
2023-01-08T15:48:16.094Z,41.18
2023-01-08T15:50:44.492Z,40.90
2023-01-08T15:53:24.708Z,40.54
2023-01-08T15:55:51.676Z,40.80
2023-01-08T15:58:18.619Z,41.35
2023-01-08T16:00:46.442Z,42.14
2023-01-08T16:03:14.549Z,42.64
2023-01-08T16:05:41.430Z,43.01
2023-01-08T16:08:08.055Z,42.62
2023-01-08T16:10:34.824Z,43.08
2023-01-08T16:13:01.920Z,43.09
2023-01-08T16:15:30.724Z,42.96
2023-01-08T16:17:58.097Z,43.42
2023-01-08T16:20:24.888Z,43.89
2023-01-08T16:22:51.489Z,43.50
2023-01-08T16:25:18.118Z,43.89
2023-01-08T16:27:44.677Z,43.82
2023-01-08T16:30:14.690Z,44.11
2023-01-08T16:32:41.925Z,44.51
2023-01-08T16:35:09.341Z,44.47
2023-01-08T16:37:35.921Z,44.38
2023-01-08T16:40:02.579Z,44.81
2023-01-08T16:42:29.395Z,44.57
2023-01-08T16:44:55.953Z,44.05
2023-01-08T16:47:22.562Z,44.27
2023-01-08T16:49:50.371Z,43.76
2023-01-08T16:52:17.520Z,44.11
2023-01-08T16:54:44.945Z,44.50
2023-01-08T16:57:11.550Z,44.64
2023-01-08T16:59:38.111Z,44.99
2023-01-08T17:02:04.704Z,44.88
2023-01-08T17:04:31.579Z,45.42
2023-01-08T17:06:58.182Z,45.26
2023-01-08T17:09:25.535Z,45.29
2023-01-08T17:11:52.128Z,45.37
2023-01-08T17:14:18.727Z,45.57
2023-01-08T17:16:45.523Z,45.40
2023-01-08T17:19:13.326Z,45.56
2023-01-08T17:21:40.257Z,45.22
2023-01-08T17:24:07.550Z,45.35
2023-01-08T17:26:34.182Z,44.78
2023-01-08T17:29:00.708Z,44.67
2023-01-08T17:31:27.457Z,44.79
2023-01-08T17:33:54.555Z,45.07
2023-01-08T17:36:23.792Z,45.26
2023-01-08T17:38:53.326Z,45.10
2023-01-08T17:41:53.660Z,44.87
2023-01-08T17:44:20.259Z,44.96
2023-01-08T17:46:46.848Z,45.08
2023-01-08T17:49:14.980Z,45.24
2023-01-08T17:51:43.158Z,45.96
2023-01-08T17:54:11.943Z,45.83
2023-01-08T17:56:38.844Z,45.53
2023-01-08T17:59:05.441Z,45.50
2023-01-08T18:01:34.756Z,45.63
2023-01-08T18:04:01.484Z,45.78
2023-01-08T18:06:28.060Z,45.40
2023-01-08T18:08:54.622Z,45.42
2023-01-08T18:11:21.306Z,44.99
2023-01-08T18:13:48.081Z,45.53
2023-01-08T18:16:15.061Z,45.41
2023-01-08T18:18:41.673Z,45.59
2023-01-08T18:21:08.846Z,45.42
2023-01-08T18:23:35.425Z,45.32
2023-01-08T18:26:12.353Z,45.54
2023-01-08T18:28:39.216Z,45.64
2023-01-08T18:31:07.640Z,45.31
2023-01-08T18:33:34.801Z,45.28
2023-01-08T18:36:06.054Z,45.67
2023-01-08T18:38:33.433Z,45.51
2023-01-08T18:40:59.990Z,46.15
2023-01-08T18:43:26.887Z,45.99
2023-01-08T18:45:59.047Z,45.96
2023-01-08T18:48:25.855Z,45.88
2023-01-08T18:50:52.454Z,45.60
2023-01-08T18:53:19.039Z,45.42
2023-01-08T18:55:45.603Z,45.64
2023-01-08T18:58:12.153Z,45.70
2023-01-08T19:00:38.756Z,45.29
2023-01-08T19:03:08.804Z,45.26
2023-01-08T19:05:40.923Z,45.64
2023-01-08T19:08:07.497Z,45.85
2023-01-08T19:10:38.571Z,45.99
2023-01-08T19:13:05.968Z,46.39
2023-01-08T19:15:33.234Z,46.87
2023-01-08T19:18:00.134Z,46.87
2023-01-08T19:20:27.428Z,46.93
2023-01-08T19:22:54.405Z,46.67
2023-01-08T19:25:21.473Z,46.66
2023-01-08T19:27:48.093Z,46.08
2023-01-08T19:30:15.390Z,46.33
2023-01-08T19:32:41.941Z,46.46
2023-01-08T19:35:08.906Z,46.71
2023-01-08T19:37:35.499Z,46.52
2023-01-08T19:40:02.090Z,47.01
2023-01-08T19:42:47.753Z,46.43
2023-01-08T19:45:14.465Z,45.69
2023-01-08T19:47:41.884Z,45.72
2023-01-08T19:50:09.295Z,45.69
2023-01-08T19:52:36.272Z,45.37
2023-01-08T19:55:02.982Z,45.56
2023-01-08T19:57:29.656Z,45.52
2023-01-08T19:59:56.210Z,45.73
2023-01-08T20:02:22.894Z,46.19
2023-01-08T20:04:50.588Z,46.72
2023-01-08T20:07:17.363Z,46.52
2023-01-08T20:09:43.999Z,46.12
2023-01-08T20:12:11.093Z,46.82
2023-01-08T20:14:37.637Z,46.73
2023-01-08T20:17:04.250Z,46.66
2023-01-08T20:19:30.791Z,46.82
2023-01-08T20:21:58.932Z,46.35
2023-01-08T20:24:25.503Z,45.81
2023-01-08T20:26:52.032Z,46.12
2023-01-08T20:29:18.664Z,46.27
2023-01-08T20:31:45.404Z,46.39
2023-01-08T20:34:15.506Z,46.89
2023-01-08T20:36:43.718Z,46.35
2023-01-08T20:39:14.560Z,47.10
2023-01-08T20:41:46.603Z,46.41
2023-01-08T20:44:22.426Z,46.31
2023-01-08T20:46:49.203Z,46.97
2023-01-08T20:49:18.353Z,47.13
2023-01-08T20:51:54.379Z,47.42
2023-01-08T20:54:25.212Z,47.15
2023-01-08T20:56:51.761Z,47.50
2023-01-08T20:59:18.377Z,47.79
2023-01-08T21:01:44.956Z,47.48
2023-01-08T21:04:11.893Z,47.56
2023-01-08T21:06:38.767Z,47.68
2023-01-08T21:09:08.092Z,47.82
2023-01-08T21:11:37.183Z,47.67
2023-01-08T21:14:04.045Z,47.65
2023-01-08T21:16:32.117Z,47.27
2023-01-08T21:18:59.143Z,47.34
2023-01-08T21:21:29.629Z,47.57
2023-01-08T21:23:57.369Z,47.41
2023-01-08T21:26:24.263Z,47.53
2023-01-08T21:28:50.867Z,47.97
2023-01-08T21:31:20.600Z,47.70
2023-01-08T21:33:48.842Z,48.76
2023-01-08T21:36:23.618Z,48.00
2023-01-08T21:38:50.685Z,47.26
2023-01-08T21:41:38.781Z,46.19
2023-01-08T21:44:48.605Z,46.30
2023-01-08T21:47:17.227Z,47.69
2023-01-08T21:49:44.676Z,47.83
2023-01-08T21:52:30.224Z,49.96
2023-01-08T21:54:58.182Z,48.66
2023-01-08T21:57:27.565Z,48.35
2023-01-08T21:59:54.698Z,49.27
2023-01-08T22:02:23.290Z,48.61
2023-01-08T22:04:50.548Z,48.95
2023-01-08T22:07:17.144Z,48.92
2023-01-08T22:09:43.836Z,50.22
2023-01-08T22:12:10.472Z,49.41
2023-01-08T22:14:37.222Z,48.77
2023-01-08T22:17:05.081Z,49.16
2023-01-08T22:19:31.617Z,48.50
2023-01-08T22:21:58.219Z,48.54
2023-01-08T22:24:24.927Z,48.68
2023-01-08T22:26:51.542Z,48.63
2023-01-08T22:29:18.150Z,48.56
2023-01-08T22:31:44.805Z,48.80
2023-01-08T22:34:16.841Z,48.80
2023-01-08T22:36:44.653Z,48.95
2023-01-08T22:39:11.639Z,48.87
2023-01-08T22:41:38.270Z,48.67
2023-01-08T22:44:04.902Z,48.75
2023-01-08T22:46:31.715Z,48.35
2023-01-08T22:48:58.385Z,48.17
2023-01-08T22:51:27.799Z,48.22
2023-01-08T22:53:55.984Z,48.32
2023-01-08T22:56:22.561Z,48.66
2023-01-08T22:58:49.177Z,48.93
2023-01-08T23:01:18.899Z,48.78
2023-01-08T23:03:49.209Z,48.77
2023-01-08T23:06:17.407Z,48.81
2023-01-08T23:08:44.955Z,48.55
2023-01-08T23:11:14.654Z,48.95
2023-01-08T23:13:42.201Z,49.82
2023-01-08T23:16:11.635Z,49.09
2023-01-08T23:18:38.545Z,49.12
2023-01-08T23:21:08.541Z,49.25
2023-01-08T23:23:35.110Z,49.32
2023-01-08T23:26:06.108Z,48.93
2023-01-08T23:28:32.798Z,49.06
2023-01-08T23:30:59.374Z,48.58
2023-01-08T23:33:26.191Z,49.40
2023-01-08T23:35:52.814Z,49.09
2023-01-08T23:38:19.431Z,48.95
2023-01-08T23:40:46.432Z,48.92
2023-01-08T23:43:13.358Z,48.88
2023-01-08T23:45:39.999Z,49.04
2023-01-08T23:48:07.582Z,48.99
2023-01-08T23:50:34.558Z,48.61
2023-01-08T23:53:01.183Z,48.28
2023-01-08T23:55:27.738Z,48.55
2023-01-08T23:57:54.291Z,49.58
